Time;durP1;ratioP1;P1;durP2;ratioP2;P2;SDS_P1;SDS_P2;PMS_P1;PMS_P2;Temp;Humidity;BMP_temperature;BMP_pressure;BME280_temperature;BME280_humidity;BME280_pressure;Samples;Min_cycle;Max_cycle;Signal;HPM_P1;HPM_P2
2021/05/30 00:02:17;;;;;;;2.17;2.00;;;13.40;99.90;;;;;;5053736;28;20417;-58
2021/05/30 00:04:43;;;;;;;2.37;2.17;;;13.50;99.90;;;;;;5053614;28;20179;-57
2021/05/30 00:07:08;;;;;;;2.90;2.40;;;13.50;99.90;;;;;;5053546;28;20195;-56
2021/05/30 00:09:35;;;;;;;3.00;2.60;;;13.60;99.90;;;;;;5053099;28;20436;-57
2021/05/30 00:12:01;;;;;;;4.17;2.87;;;13.50;99.90;;;;;;5053610;28;20163;-58
2021/05/30 00:14:27;;;;;;;2.17;1.97;;;13.40;99.90;;;;;;5056076;28;20456;-57
2021/05/30 00:16:52;;;;;;;2.20;2.00;;;13.50;99.90;;;;;;5053623;28;20598;-58
2021/05/30 00:19:18;;;;;;;2.33;2.13;;;13.30;99.90;;;;;;5053499;28;20421;-58
2021/05/30 00:21:45;;;;;;;2.37;2.17;;;13.30;99.90;;;;;;5053467;28;20198;-59
2021/05/30 00:24:11;;;;;;;2.50;2.30;;;13.30;99.90;;;;;;5053227;28;20461;-57
2021/05/30 00:26:37;;;;;;;2.40;2.20;;;13.20;99.90;;;;;;5053042;28;20432;-58
2021/05/30 00:29:03;;;;;;;2.13;1.93;;;13.30;99.90;;;;;;5052994;28;20421;-57
2021/05/30 00:31:29;;;;;;;2.50;2.17;;;13.30;99.90;;;;;;5053348;28;20415;-57
2021/05/30 00:33:55;;;;;;;3.60;2.40;;;13.30;99.90;;;;;;5053145;28;20411;-58
2021/05/30 00:36:21;;;;;;;2.67;2.47;;;13.20;99.90;;;;;;5053159;28;20165;-57
2021/05/30 00:38:46;;;;;;;2.60;2.40;;;13.20;99.90;;;;;;5052935;28;20228;-58
2021/05/30 00:41:12;;;;;;;2.60;2.23;;;13.10;99.90;;;;;;5053106;28;20506;-58
2021/05/30 00:43:49;;;;;;;3.23;2.23;;;13.10;99.90;;;;;;5053144;28;20158;-57
2021/05/30 00:46:15;;;;;;;2.43;2.23;;;13.00;99.90;;;;;;5053129;28;20158;-58
2021/05/30 00:48:41;;;;;;;2.20;2.10;;;12.80;99.90;;;;;;5053057;28;20460;-58
2021/05/30 00:51:07;;;;;;;2.40;2.20;;;12.80;99.90;;;;;;5053591;28;20405;-59
2021/05/30 00:53:34;;;;;;;2.77;2.53;;;12.70;99.90;;;;;;5052904;28;20397;-57
2021/05/30 00:56:03;;;;;;;2.87;2.67;;;12.60;99.90;;;;;;5053149;28;20164;-57
2021/05/30 00:58:29;;;;;;;4.93;2.70;;;12.60;99.90;;;;;;5053106;28;20401;-58
2021/05/30 01:00:54;;;;;;;3.37;2.47;;;12.60;99.90;;;;;;5052868;28;20397;-57
2021/05/30 01:03:20;;;;;;;3.20;2.20;;;12.50;99.90;;;;;;5053532;28;20166;-58
2021/05/30 01:05:47;;;;;;;3.43;2.37;;;12.50;99.90;;;;;;5052922;28;20216;-59
2021/05/30 01:08:15;;;;;;;2.87;2.67;;;12.50;99.90;;;;;;5052682;28;20202;-58
2021/05/30 01:10:45;;;;;;;2.80;2.60;;;12.60;99.90;;;;;;5053026;28;20401;-59
2021/05/30 01:13:12;;;;;;;3.53;3.23;;;12.60;99.90;;;;;;5053033;28;20802;-58
2021/05/30 01:15:39;;;;;;;2.83;2.63;;;12.60;99.90;;;;;;5052722;28;20440;-58
2021/05/30 01:18:04;;;;;;;3.13;2.83;;;12.60;99.90;;;;;;5052961;28;20409;-56
2021/05/30 01:20:31;;;;;;;3.80;2.87;;;12.50;99.90;;;;;;5052880;28;20781;-59
2021/05/30 01:22:56;;;;;;;4.70;3.10;;;12.50;99.90;;;;;;5055793;28;20167;-59
2021/05/30 01:25:25;;;;;;;3.13;2.90;;;12.50;99.90;;;;;;5056194;28;20405;-57
2021/05/30 01:27:51;;;;;;;3.93;3.60;;;12.50;99.90;;;;;;5056468;28;20272;-58
2021/05/30 01:30:19;;;;;;;3.70;3.40;;;12.40;99.90;;;;;;5056503;28;20771;-57
2021/05/30 01:32:46;;;;;;;3.67;3.37;;;12.20;99.90;;;;;;5056308;28;20408;-58
2021/05/30 01:35:12;;;;;;;4.37;3.97;;;12.20;99.90;;;;;;5056415;28;20411;-57
2021/05/30 01:37:37;;;;;;;4.90;4.00;;;12.10;99.90;;;;;;5044822;28;20422;-58
2021/05/30 01:40:04;;;;;;;3.93;3.60;;;12.10;99.90;;;;;;5055362;28;20442;-56
2021/05/30 01:42:30;;;;;;;4.27;3.80;;;12.10;99.90;;;;;;5055880;28;20173;-57
2021/05/30 01:44:55;;;;;;;4.30;4.00;;;12.10;99.90;;;;;;5056260;28;20454;-59
2021/05/30 01:47:21;;;;;;;4.33;3.80;;;12.00;99.90;;;;;;5055110;28;20252;-57
2021/05/30 01:49:47;;;;;;;4.30;3.90;;;11.90;99.90;;;;;;5086836;22;20572;-56
2021/05/30 01:52:13;;;;;;;8.00;3.93;;;11.90;99.90;;;;;;5073145;28;20174;-56
2021/05/30 01:54:42;;;;;;;4.37;3.97;;;12.00;99.90;;;;;;5074577;28;20558;-57
2021/05/30 01:57:09;;;;;;;3.90;3.53;;;12.00;99.90;;;;;;5074726;28;20893;-57
2021/05/30 01:59:36;;;;;;;4.47;4.07;;;12.10;99.90;;;;;;5074899;28;20473;-55
2021/05/30 02:02:03;;;;;;;4.93;4.50;;;12.10;99.90;;;;;;5074575;28;20419;-55
2021/05/30 02:04:43;;;;;;;8.70;4.30;;;12.10;99.90;;;;;;5074550;28;20411;-56
2021/05/30 02:07:09;;;;;;;4.90;4.50;;;11.90;99.90;;;;;;5092514;28;20448;-57
2021/05/30 02:09:37;;;;;;;4.70;4.10;;;11.90;99.90;;;;;;5094706;28;20550;-56
2021/05/30 02:12:08;;;;;;;5.93;4.07;;;12.00;99.90;;;;;;5095237;28;20400;-55
2021/05/30 02:14:34;;;;;;;4.57;4.17;;;12.00;99.90;;;;;;5094770;28;20384;-55
2021/05/30 02:16:59;;;;;;;4.90;4.50;;;12.10;99.90;;;;;;5094611;28;20461;-56
2021/05/30 02:19:25;;;;;;;4.87;4.37;;;12.00;99.90;;;;;;5094952;28;20420;-55
2021/05/30 02:21:52;;;;;;;4.83;4.43;;;12.00;99.90;;;;;;5094467;28;20166;-55
2021/05/30 02:24:21;;;;;;;5.23;4.73;;;12.00;99.90;;;;;;5094294;28;20188;-55
2021/05/30 02:26:47;;;;;;;4.80;4.30;;;12.00;99.90;;;;;;5094618;28;20899;-56
2021/05/30 02:29:43;;;;;;;5.27;4.87;;;12.00;99.90;;;;;;5094616;28;20503;-56
2021/05/30 02:32:13;;;;;;;4.33;3.93;;;12.00;99.90;;;;;;5091746;28;20915;-54
2021/05/30 02:34:42;;;;;;;4.57;4.03;;;11.90;99.90;;;;;;5094207;28;20384;-50
2021/05/30 02:37:12;;;;;;;4.30;3.90;;;11.90;99.90;;;;;;5094100;28;20410;-52
2021/05/30 02:39:38;;;;;;;5.80;4.37;;;12.00;99.90;;;;;;5094221;28;20825;-54
2021/05/30 02:42:06;;;;;;;4.93;4.53;;;11.80;99.90;;;;;;5094388;28;20412;-54
2021/05/30 02:44:32;;;;;;;4.43;4.03;;;11.80;99.90;;;;;;5094431;28;20414;-54
2021/05/30 02:46:58;;;;;;;4.13;3.83;;;11.80;99.90;;;;;;5094373;28;20451;-54
2021/05/30 02:49:24;;;;;;;4.33;4.00;;;11.80;99.90;;;;;;5093881;28;20436;-55
2021/05/30 02:51:51;;;;;;;4.80;4.33;;;11.80;99.90;;;;;;5094202;28;20418;-55
2021/05/30 02:54:17;;;;;;;4.73;4.30;;;11.80;99.90;;;;;;5093819;28;20294;-55
2021/05/30 02:56:42;;;;;;;5.60;5.10;;;11.80;99.90;;;;;;5094046;28;20908;-52
2021/05/30 02:59:08;;;;;;;4.60;4.27;;;11.70;99.90;;;;;;5093928;28;20783;-55
2021/05/30 03:01:33;;;;;;;4.60;4.20;;;11.70;99.90;;;;;;5093990;28;20165;-54
2021/05/30 03:03:59;;;;;;;8.47;4.90;;;11.80;99.90;;;;;;5093948;28;20249;-55
2021/05/30 03:06:25;;;;;;;4.07;3.70;;;11.70;99.90;;;;;;5093520;28;20163;-56
2021/05/30 03:08:53;;;;;;;4.57;4.17;;;11.60;99.90;;;;;;5093768;28;20164;-55
2021/05/30 03:11:21;;;;;;;4.63;4.20;;;11.50;99.90;;;;;;5094324;28;20235;-55
2021/05/30 03:13:50;;;;;;;5.20;4.70;;;11.50;99.90;;;;;;5093601;28;20402;-56
2021/05/30 03:16:15;;;;;;;5.53;5.03;;;11.50;99.90;;;;;;5093457;28;20410;-54
2021/05/30 03:18:41;;;;;;;5.60;4.90;;;11.50;99.90;;;;;;5093359;28;20411;-54
2021/05/30 03:21:07;;;;;;;6.20;4.83;;;11.50;99.90;;;;;;5093535;28;20193;-53
2021/05/30 03:23:32;;;;;;;5.40;4.90;;;11.50;99.90;;;;;;5093242;28;20434;-52
2021/05/30 03:25:58;;;;;;;5.53;4.63;;;11.60;99.90;;;;;;5093223;28;20176;-56
2021/05/30 03:28:24;;;;;;;4.80;4.33;;;11.50;99.90;;;;;;5093137;28;20197;-53
2021/05/30 03:30:50;;;;;;;5.07;4.67;;;11.50;99.90;;;;;;5093469;28;20193;-53
2021/05/30 03:33:15;;;;;;;4.90;4.50;;;11.50;99.90;;;;;;5093719;28;20463;-56
2021/05/30 03:35:43;;;;;;;5.83;4.77;;;11.50;99.90;;;;;;5093368;28;20169;-55
2021/05/30 03:38:11;;;;;;;4.77;4.37;;;11.40;99.90;;;;;;5092976;28;20184;-56
2021/05/30 03:40:59;;;;;;;4.70;4.30;;;11.40;99.90;;;;;;5093024;28;20793;-56
2021/05/30 03:43:24;;;;;;;8.53;5.50;;;11.50;99.90;;;;;;5092778;28;20402;-56
2021/05/30 03:45:50;;;;;;;4.90;4.50;;;11.50;99.90;;;;;;5092518;28;20407;-56
2021/05/30 03:48:15;;;;;;;8.13;4.97;;;11.30;99.90;;;;;;5093097;28;20193;-55
2021/05/30 03:50:41;;;;;;;6.43;5.80;;;11.30;99.90;;;;;;5092771;28;20518;-54
2021/05/30 03:53:06;;;;;;;4.90;4.40;;;11.30;99.90;;;;;;5092819;28;20162;-56
2021/05/30 03:55:32;;;;;;;5.30;4.80;;;11.30;99.90;;;;;;5092847;28;20174;-56
2021/05/30 03:57:59;;;;;;;5.40;4.90;;;11.40;99.90;;;;;;5092786;28;20569;-54
2021/05/30 04:00:25;;;;;;;5.20;4.80;;;11.40;99.90;;;;;;5092816;28;20761;-54
2021/05/30 04:02:50;;;;;;;5.40;4.70;;;11.30;99.90;;;;;;5092799;28;20549;-54
2021/05/30 04:05:17;;;;;;;6.20;4.40;;;11.30;99.90;;;;;;5093035;28;20248;-54
2021/05/30 04:07:43;;;;;;;5.67;4.53;;;11.30;99.90;;;;;;5092394;28;20223;-55
2021/05/30 04:10:11;;;;;;;5.03;4.10;;;11.30;99.90;;;;;;5092931;28;20424;-52
2021/05/30 04:12:37;;;;;;;6.03;5.43;;;11.20;99.90;;;;;;5092564;28;20407;-54
2021/05/30 04:15:05;;;;;;;5.60;5.07;;;11.30;99.90;;;;;;5092734;28;20848;-54
2021/05/30 04:17:30;;;;;;;7.10;6.40;;;11.30;99.90;;;;;;5092540;28;20414;-53
2021/05/30 04:19:56;;;;;;;6.00;5.40;;;11.30;99.90;;;;;;5092859;28;20423;-53
2021/05/30 04:22:22;;;;;;;7.60;6.17;;;11.30;99.90;;;;;;5092524;28;20172;-56
2021/05/30 04:24:47;;;;;;;7.23;6.53;;;11.30;99.90;;;;;;5092665;28;20627;-52
2021/05/30 04:27:13;;;;;;;6.90;6.20;;;11.30;99.90;;;;;;5092290;28;20197;-54
2021/05/30 04:29:39;;;;;;;6.90;6.20;;;11.40;99.90;;;;;;5092331;28;20185;-53
2021/05/30 04:32:05;;;;;;;6.80;6.20;;;11.50;99.90;;;;;;5092661;28;20464;-55
2021/05/30 04:34:31;;;;;;;6.10;5.60;;;11.50;99.90;;;;;;5092415;28;20177;-54
2021/05/30 04:36:56;;;;;;;7.03;5.93;;;11.60;99.90;;;;;;5092594;28;20460;-53
2021/05/30 04:39:22;;;;;;;6.77;6.17;;;11.60;99.90;;;;;;5092631;28;20572;-54
2021/05/30 04:41:47;;;;;;;6.37;5.57;;;11.60;99.90;;;;;;5092389;28;20184;-55
2021/05/30 04:44:13;;;;;;;5.90;5.40;;;11.60;99.90;;;;;;5092345;28;20201;-51
2021/05/30 04:46:39;;;;;;;5.60;5.10;;;11.70;99.90;;;;;;5065908;28;20614;-54
2021/05/30 04:49:04;;;;;;;6.20;5.40;;;11.70;99.90;;;;;;5070184;28;20228;-56
2021/05/30 04:51:30;;;;;;;5.53;4.90;;;11.70;99.90;;;;;;5054188;28;20178;-54
2021/05/30 04:53:55;;;;;;;5.23;4.37;;;11.70;99.90;;;;;;5072274;28;20170;-55
2021/05/30 04:56:22;;;;;;;4.77;4.40;;;11.70;99.90;;;;;;5074954;28;20664;-52
2021/05/30 04:58:51;;;;;;;4.30;4.00;;;11.80;99.90;;;;;;5075790;28;20182;-56
2021/05/30 05:01:17;;;;;;;5.83;5.33;;;11.80;99.90;;;;;;5076221;28;20408;-53
2021/05/30 05:03:43;;;;;;;4.93;4.50;;;11.90;99.90;;;;;;5075819;28;20418;-53
2021/05/30 05:06:09;;;;;;;4.87;4.37;;;11.90;99.90;;;;;;5076090;28;20212;-51
2021/05/30 05:08:35;;;;;;;5.00;4.60;;;12.00;99.90;;;;;;5075829;28;20190;-54
2021/05/30 05:11:00;;;;;;;5.43;4.93;;;12.00;99.90;;;;;;5075542;28;20458;-56
2021/05/30 05:13:26;;;;;;;5.20;4.70;;;12.10;99.90;;;;;;5075925;28;20551;-51
2021/05/30 05:15:53;;;;;;;5.20;4.70;;;12.30;99.90;;;;;;5075443;28;20207;-56
2021/05/30 05:18:21;;;;;;;5.10;4.57;;;12.40;99.90;;;;;;5075649;28;20527;-56
2021/05/30 05:20:47;;;;;;;6.07;5.50;;;12.60;99.90;;;;;;5075662;28;20432;-54
2021/05/30 05:23:18;;;;;;;5.30;4.80;;;12.70;99.90;;;;;;5075360;28;20442;-56
2021/05/30 05:25:48;;;;;;;6.57;5.60;;;12.70;99.90;;;;;;5075301;28;20408;-55
2021/05/30 05:28:14;;;;;;;4.80;4.40;;;12.90;99.90;;;;;;5075288;28;20970;-53
2021/05/30 05:30:39;;;;;;;5.30;4.80;;;13.00;99.90;;;;;;5075717;28;20570;-53
2021/05/30 05:33:05;;;;;;;5.17;4.77;;;13.10;99.90;;;;;;5075052;28;20170;-56
2021/05/30 05:35:30;;;;;;;6.77;5.60;;;13.10;99.90;;;;;;5074862;28;20249;-55
2021/05/30 05:37:58;;;;;;;5.20;4.70;;;13.20;99.90;;;;;;5075086;28;20177;-53
2021/05/30 05:40:25;;;;;;;5.37;4.87;;;13.30;99.90;;;;;;5075144;28;20198;-54
2021/05/30 05:42:51;;;;;;;6.00;5.40;;;13.40;99.90;;;;;;5074968;28;20414;-56
2021/05/30 05:45:18;;;;;;;7.40;5.47;;;13.50;99.90;;;;;;5074995;28;20478;-56
2021/05/30 05:47:44;;;;;;;5.30;4.80;;;13.60;99.90;;;;;;5074902;28;20441;-55
2021/05/30 05:50:15;;;;;;;6.80;6.00;;;13.80;99.90;;;;;;5074723;28;20446;-54
2021/05/30 05:52:41;;;;;;;5.47;4.90;;;13.80;99.90;;;;;;5075130;28;20405;-53
2021/05/30 05:55:08;;;;;;;4.97;4.50;;;13.80;99.90;;;;;;5074817;28;20440;-54
2021/05/30 05:57:34;;;;;;;4.90;4.50;;;13.90;99.90;;;;;;5075020;28;20425;-54
2021/05/30 06:00:00;;;;;;;5.30;4.80;;;14.10;99.90;;;;;;5086576;28;20442;-54
2021/05/30 06:02:26;;;;;;;5.37;4.97;;;14.20;99.90;;;;;;5094874;28;20404;-53
2021/05/30 06:04:52;;;;;;;5.67;5.17;;;14.30;99.90;;;;;;5095074;28;20413;-57
2021/05/30 06:07:17;;;;;;;5.37;4.77;;;14.40;99.90;;;;;;5094494;28;20673;-57
2021/05/30 06:09:43;;;;;;;6.07;5.47;;;14.30;99.90;;;;;;5094969;28;20190;-52
2021/05/30 06:12:09;;;;;;;5.77;4.77;;;14.40;99.90;;;;;;5094674;28;20165;-57
2021/05/30 06:14:35;;;;;;;5.53;4.90;;;14.40;99.90;;;;;;5094984;28;20175;-55
2021/05/30 06:17:02;;;;;;;6.43;5.73;;;14.40;99.90;;;;;;5095205;28;20459;-57
2021/05/30 06:19:28;;;;;;;5.23;4.73;;;14.30;99.90;;;;;;5094782;28;20613;-55
2021/05/30 06:21:54;;;;;;;6.23;5.30;;;14.60;99.90;;;;;;5094827;28;20418;-57
2021/05/30 06:24:19;;;;;;;5.80;5.20;;;14.70;99.90;;;;;;5094600;28;20229;-57
2021/05/30 06:26:45;;;;;;;5.53;5.03;;;14.50;99.90;;;;;;5095035;28;20489;-57
2021/05/30 06:29:11;;;;;;;6.17;4.90;;;14.50;99.90;;;;;;5094238;28;20214;-53
2021/05/30 06:31:36;;;;;;;5.90;5.17;;;14.60;99.90;;;;;;5094414;28;20176;-54
2021/05/30 06:34:02;;;;;;;4.53;4.23;;;14.80;99.90;;;;;;5094336;28;20173;-55
2021/05/30 06:36:27;;;;;;;5.80;4.53;;;15.00;99.90;;;;;;5094200;28;20202;-54
2021/05/30 06:38:53;;;;;;;4.30;4.00;;;15.10;99.90;;;;;;5094602;28;20248;-52
2021/05/30 06:41:18;;;;;;;4.80;4.40;;;15.20;99.90;;;;;;5094366;28;20632;-54
2021/05/30 06:43:44;;;;;;;7.30;4.50;;;15.20;99.90;;;;;;5094183;28;20654;-53
2021/05/30 06:46:10;;;;;;;5.00;4.53;;;15.10;99.90;;;;;;5094624;28;20183;-53
2021/05/30 06:48:36;;;;;;;5.27;4.70;;;15.00;99.90;;;;;;5094648;28;20481;-53
2021/05/30 06:51:18;;;;;;;4.47;4.07;;;15.00;99.90;;;;;;5094162;28;20199;-56
2021/05/30 06:53:48;;;;;;;4.60;3.97;;;15.10;99.90;;;;;;5094009;28;20617;-56
2021/05/30 06:56:14;;;;;;;4.93;4.43;;;15.40;99.90;;;;;;5094044;28;20404;-53
2021/05/30 06:58:40;;;;;;;5.10;4.60;;;15.50;99.90;;;;;;5093885;28;20777;-56
2021/05/30 07:01:06;;;;;;;4.87;4.47;;;15.60;99.90;;;;;;5093727;28;20944;-56
2021/05/30 07:03:31;;;;;;;4.03;3.70;;;15.90;99.90;;;;;;5094074;28;20405;-56
2021/05/30 07:05:58;;;;;;;4.43;4.03;;;16.10;99.90;;;;;;5093886;28;20410;-57
2021/05/30 07:08:24;;;;;;;4.00;3.70;;;16.20;99.90;;;;;;5093900;28;20217;-56
2021/05/30 07:10:52;;;;;;;5.37;4.40;;;16.20;99.90;;;;;;5093939;28;20539;-55
2021/05/30 07:13:17;;;;;;;5.37;4.47;;;15.90;99.90;;;;;;5094009;28;20409;-56
2021/05/30 07:15:43;;;;;;;4.60;4.20;;;16.10;99.90;;;;;;5093694;28;20767;-54
2021/05/30 07:18:09;;;;;;;4.07;3.77;;;15.90;99.90;;;;;;5094231;28;20207;-53
2021/05/30 07:20:34;;;;;;;5.03;4.53;;;15.70;99.90;;;;;;5093786;28;20192;-54
2021/05/30 07:23:00;;;;;;;4.40;4.00;;;15.60;99.90;;;;;;5093604;28;20177;-50
2021/05/30 07:25:25;;;;;;;4.27;3.97;;;15.70;99.90;;;;;;5093618;28;20579;-54
2021/05/30 07:27:51;;;;;;;5.43;4.40;;;16.00;99.90;;;;;;5093215;28;20259;-55
2021/05/30 07:30:18;;;;;;;5.17;4.63;;;16.20;99.60;;;;;;5093171;28;20186;-56
2021/05/30 07:32:44;;;;;;;5.10;4.50;;;16.20;99.70;;;;;;5093313;28;20428;-57
2021/05/30 07:35:10;;;;;;;4.97;3.97;;;16.30;99.90;;;;;;5093578;28;20479;-55
2021/05/30 07:37:35;;;;;;;4.87;3.90;;;16.60;99.70;;;;;;5092114;28;20203;-54
2021/05/30 07:40:02;;;;;;;4.50;4.10;;;16.50;99.00;;;;;;5070730;28;20993;-56
2021/05/30 07:42:28;;;;;;;3.37;3.10;;;16.40;99.00;;;;;;5072756;28;20172;-55
2021/05/30 07:44:54;;;;;;;4.53;4.23;;;16.60;98.70;;;;;;5072962;28;20938;-53
2021/05/30 07:47:21;;;;;;;3.93;3.40;;;16.40;98.30;;;;;;5073243;28;20202;-52
2021/05/30 07:49:47;;;;;;;4.70;4.30;;;16.50;98.30;;;;;;5088310;22;20333;-54
2021/05/30 07:52:13;;;;;;;4.57;3.33;;;16.40;98.00;;;;;;5074032;28;20868;-55
2021/05/30 07:54:39;;;;;;;4.60;4.20;;;16.30;97.70;;;;;;5073915;28;20179;-56
2021/05/30 07:57:05;;;;;;;4.37;4.07;;;16.40;97.50;;;;;;5074293;28;20804;-57
2021/05/30 07:59:30;;;;;;;4.10;3.70;;;16.60;97.30;;;;;;5091215;28;20177;-55
2021/05/30 08:01:57;;;;;;;3.47;3.17;;;16.70;97.20;;;;;;5093850;28;20402;-55
2021/05/30 08:04:23;;;;;;;3.73;3.43;;;16.80;96.70;;;;;;5093693;28;20233;-56
2021/05/30 08:06:49;;;;;;;3.43;2.90;;;16.90;96.20;;;;;;5075148;28;20419;-55
2021/05/30 08:09:14;;;;;;;3.50;3.20;;;17.00;95.70;;;;;;5070082;28;20169;-56
2021/05/30 08:11:40;;;;;;;4.23;3.90;;;17.00;94.80;;;;;;5073009;28;20614;-56
2021/05/30 08:14:05;;;;;;;4.90;3.37;;;17.10;94.50;;;;;;5073398;28;20260;-54
2021/05/30 08:16:31;;;;;;;3.17;2.70;;;17.30;94.20;;;;;;5073457;28;20184;-57
2021/05/30 08:18:56;;;;;;;2.97;2.67;;;17.30;92.80;;;;;;5073637;28;20163;-56
2021/05/30 08:21:22;;;;;;;3.30;2.87;;;17.30;92.50;;;;;;5073569;28;20197;-56
2021/05/30 08:23:49;;;;;;;3.00;2.60;;;17.30;92.40;;;;;;5073856;28;20243;-56
2021/05/30 08:26:15;;;;;;;3.00;2.73;;;17.30;92.00;;;;;;5073234;28;20176;-54
2021/05/30 08:28:41;;;;;;;3.40;3.10;;;17.40;91.60;;;;;;5073524;28;20443;-56
2021/05/30 08:31:07;;;;;;;3.60;2.70;;;17.40;91.30;;;;;;5075705;28;20506;-55
2021/05/30 08:33:33;;;;;;;3.10;2.63;;;17.50;90.60;;;;;;5077461;28;20173;-53
2021/05/30 08:35:59;;;;;;;3.53;2.83;;;17.40;90.30;;;;;;5077209;28;20159;-54
2021/05/30 08:38:25;;;;;;;3.00;2.77;;;17.50;90.80;;;;;;5074262;28;20424;-56
2021/05/30 08:40:51;;;;;;;3.30;2.60;;;17.70;89.50;;;;;;5073720;28;20270;-57
2021/05/30 08:43:17;;;;;;;2.87;2.67;;;17.60;88.80;;;;;;5077029;28;20418;-56
2021/05/30 08:45:44;;;;;;;3.30;3.00;;;17.50;89.50;;;;;;5077167;28;20472;-54
2021/05/30 08:48:10;;;;;;;3.13;2.73;;;17.60;89.70;;;;;;5077076;28;20451;-54
2021/05/30 08:50:36;;;;;;;3.00;2.80;;;17.70;90.10;;;;;;5076713;28;20582;-55
2021/05/30 08:53:02;;;;;;;4.47;3.43;;;17.80;88.60;;;;;;5077023;28;20417;-55
2021/05/30 08:55:27;;;;;;;6.63;3.20;;;17.50;88.00;;;;;;5076891;28;20410;-57
2021/05/30 08:57:53;;;;;;;3.73;3.17;;;17.60;90.40;;;;;;5076650;28;20185;-57
2021/05/30 09:00:26;;;;;;;3.73;2.83;;;17.70;89.70;;;;;;5076999;28;20548;-56
2021/05/30 09:03:12;;;;;;;4.10;2.87;;;17.80;86.70;;;;;;5077150;28;20157;-56
2021/05/30 09:05:38;;;;;;;3.20;2.67;;;18.10;85.60;;;;;;5077144;28;20431;-56
2021/05/30 09:08:04;;;;;;;4.30;2.60;;;18.30;87.10;;;;;;5072659;28;20494;-56
2021/05/30 09:10:29;;;;;;;3.60;3.30;;;18.40;86.20;;;;;;5058500;28;20432;-55
2021/05/30 09:13:16;;;;;;;3.50;3.00;;;18.80;86.80;;;;;;5076533;28;20193;-55
2021/05/30 09:18:23;;;;;;;4.17;3.00;;;18.80;82.00;;;;;;5076795;28;20457;-56
2021/05/30 09:21:03;;;;;;;2.93;2.70;;;18.70;82.10;;;;;;5076422;28;20455;-55
2021/05/30 09:23:36;;;;;;;2.43;2.23;;;18.90;81.60;;;;;;5076560;28;20380;-52
2021/05/30 09:26:19;;;;;;;2.60;2.40;;;18.90;81.10;;;;;;5076596;28;20419;-54
2021/05/30 09:29:06;;;;;;;3.53;3.00;;;19.10;80.50;;;;;;5075087;28;20450;-52
2021/05/30 09:31:56;;;;;;;3.40;2.70;;;18.70;80.80;;;;;;5076092;28;20412;-53
2021/05/30 09:34:29;;;;;;;2.77;2.57;;;18.80;81.40;;;;;;5068806;28;20403;-55
2021/05/30 09:36:55;;;;;;;3.20;2.90;;;19.10;78.10;;;;;;5076661;28;20377;-56
2021/05/30 09:39:41;;;;;;;3.80;2.83;;;19.30;78.80;;;;;;5076150;28;20541;-54
2021/05/30 09:42:26;;;;;;;2.97;2.77;;;19.10;79.70;;;;;;5075295;28;20388;-55
2021/05/30 09:44:56;;;;;;;3.53;3.27;;;19.30;80.00;;;;;;5076168;28;20432;-56
2021/05/30 09:47:35;;;;;;;2.93;2.73;;;19.50;81.20;;;;;;5075777;28;21015;-55
2021/05/30 09:50:03;;;;;;;2.87;2.63;;;19.90;83.00;;;;;;5075902;28;20439;-55
2021/05/30 09:52:42;;;;;;;3.27;3.07;;;19.90;80.30;;;;;;5076039;28;20393;-58
2021/05/30 09:55:33;;;;;;;5.00;3.03;;;19.70;81.00;;;;;;5075749;28;20407;-57
2021/05/30 09:58:14;;;;;;;3.50;3.20;;;19.50;80.30;;;;;;5078383;28;20954;-54
2021/05/30 10:00:44;;;;;;;2.83;2.53;;;19.60;79.10;;;;;;5076218;28;20789;-58
2021/05/30 10:03:10;;;;;;;4.10;3.50;;;19.70;78.80;;;;;;5075461;28;20407;-55
2021/05/30 10:05:36;;;;;;;2.90;2.60;;;19.70;80.00;;;;;;5075813;28;20878;-57
2021/05/30 10:08:02;;;;;;;6.83;3.00;;;19.80;79.40;;;;;;5075924;28;20303;-57
2021/05/30 10:10:30;;;;;;;3.20;2.90;;;20.00;77.20;;;;;;5075584;28;20851;-56
2021/05/30 10:12:55;;;;;;;3.60;2.47;;;20.30;79.10;;;;;;5075683;28;20489;-54
2021/05/30 10:15:22;;;;;;;2.60;2.40;;;20.50;75.00;;;;;;5075492;28;20400;-55
2021/05/30 10:17:50;;;;;;;3.23;2.43;;;20.40;74.80;;;;;;5075978;28;20638;-57
2021/05/30 10:20:21;;;;;;;3.53;3.23;;;20.30;75.20;;;;;;5075228;28;20897;-57
2021/05/30 10:22:52;;;;;;;4.70;2.30;;;20.00;75.30;;;;;;5075003;28;20384;-57
2021/05/30 10:25:28;;;;;;;3.20;2.90;;;19.70;77.00;;;;;;5075480;28;20434;-57
2021/05/30 10:28:13;;;;;;;3.83;3.27;;;19.60;76.10;;;;;;5075159;28;20487;-57
2021/05/30 10:30:42;;;;;;;3.37;3.07;;;19.60;76.00;;;;;;5075338;28;20419;-56
2021/05/30 10:33:18;;;;;;;3.00;2.80;;;19.40;75.30;;;;;;5075127;28;20483;-57
2021/05/30 10:35:49;;;;;;;4.30;3.20;;;19.30;76.30;;;;;;5074996;28;20385;-56
2021/05/30 10:38:40;;;;;;;2.83;2.47;;;19.30;77.90;;;;;;5075053;28;20389;-53
2021/05/30 10:41:13;;;;;;;3.57;3.27;;;19.50;76.70;;;;;;5056841;28;20424;-57
2021/05/30 10:43:39;;;;;;;4.20;2.90;;;19.50;75.00;;;;;;5074903;28;20404;-56
2021/05/30 10:46:06;;;;;;;5.43;3.13;;;19.40;74.90;;;;;;5075035;28;20406;-56
2021/05/30 10:48:32;;;;;;;3.33;3.07;;;19.50;78.60;;;;;;5074559;28;20196;-56
2021/05/30 10:53:32;;;;;;;4.20;3.17;;;19.80;73.90;;;;;;5074588;28;20819;-56
2021/05/30 10:56:21;;;;;;;4.37;3.50;;;20.10;73.90;;;;;;5074700;28;20178;-57
2021/05/30 10:59:11;;;;;;;3.63;3.20;;;20.20;73.10;;;;;;5074643;28;20398;-57
2021/05/30 11:01:48;;;;;;;4.03;3.63;;;19.90;72.10;;;;;;5074500;28;20416;-57
2021/05/30 11:04:23;;;;;;;3.03;2.83;;;20.10;72.20;;;;;;5072944;28;20404;-56
2021/05/30 11:06:50;;;;;;;3.10;2.87;;;20.50;71.30;;;;;;5074346;28;20453;-56
2021/05/30 11:09:16;;;;;;;3.10;2.90;;;21.00;72.90;;;;;;5074417;28;20433;-57
2021/05/30 11:11:43;;;;;;;3.33;2.83;;;21.50;69.80;;;;;;5074345;28;20404;-56
2021/05/30 11:14:15;;;;;;;2.80;2.50;;;21.90;67.60;;;;;;5071930;28;20530;-57
2021/05/30 11:16:48;;;;;;;2.93;2.73;;;21.30;68.40;;;;;;5074138;28;20408;-57
2021/05/30 11:19:18;;;;;;;3.70;2.80;;;21.20;67.40;;;;;;5073878;28;20462;-53
2021/05/30 11:21:48;;;;;;;3.03;2.70;;;20.90;66.30;;;;;;5074068;28;20477;-56
2021/05/30 11:24:17;;;;;;;3.97;2.90;;;20.80;66.60;;;;;;5074210;28;20479;-54
2021/05/30 11:27:00;;;;;;;3.27;2.90;;;20.70;66.30;;;;;;5074209;28;20442;-55
2021/05/30 11:29:26;;;;;;;3.80;2.63;;;20.80;66.90;;;;;;5074126;28;20865;-56
2021/05/30 11:31:52;;;;;;;3.40;2.63;;;22.60;61.70;;;;;;5073750;28;20409;-57
2021/05/30 11:34:19;;;;;;;3.57;3.27;;;22.00;60.10;;;;;;5074071;28;20408;-56
2021/05/30 11:36:45;;;;;;;3.40;2.80;;;21.70;62.30;;;;;;5073746;28;20503;-54
2021/05/30 11:39:15;;;;;;;2.67;2.40;;;21.30;60.90;;;;;;5073819;28;20411;-55
2021/05/30 11:41:56;;;;;;;3.37;2.67;;;22.40;60.00;;;;;;5073700;28;20414;-54
2021/05/30 11:44:24;;;;;;;2.70;2.23;;;23.70;56.60;;;;;;5074621;28;20483;-57
2021/05/30 11:46:58;;;;;;;2.63;2.43;;;23.30;57.40;;;;;;5073494;28;20774;-54
2021/05/30 11:49:25;;;;;;;4.60;2.93;;;23.10;58.10;;;;;;5073712;28;20440;-55
2021/05/30 11:52:05;;;;;;;3.70;2.60;;;23.30;56.40;;;;;;5073587;28;20407;-56
2021/05/30 11:54:34;;;;;;;2.60;2.40;;;25.50;53.60;;;;;;5073828;28;20427;-57
2021/05/30 11:57:05;;;;;;;2.90;2.60;;;26.60;52.50;;;;;;5073553;28;20414;-57
2021/05/30 11:59:32;;;;;;;2.97;2.60;;;28.10;48.00;;;;;;5073745;28;20404;-57
2021/05/30 12:01:58;;;;;;;2.50;2.23;;;28.00;47.70;;;;;;5073512;28;20400;-57
2021/05/30 12:04:40;;;;;;;4.27;3.00;;;25.80;49.00;;;;;;5073302;28;20487;-54
2021/05/30 12:07:10;;;;;;;4.13;2.50;;;24.40;52.30;;;;;;5075820;28;20494;-57
2021/05/30 12:09:55;;;;;;;2.00;1.90;;;25.60;50.00;;;;;;5073280;28;20424;-57
2021/05/30 12:12:36;;;;;;;2.07;1.97;;;26.90;47.20;;;;;;5073481;28;20377;-57
2021/05/30 12:15:07;;;;;;;2.50;2.23;;;27.90;45.20;;;;;;5073537;28;20781;-57
2021/05/30 12:17:34;;;;;;;2.53;2.20;;;29.80;42.90;;;;;;5073303;28;20432;-57
2021/05/30 12:20:00;;;;;;;2.50;2.30;;;28.70;40.40;;;;;;5073644;28;20424;-57
2021/05/30 12:22:28;;;;;;;2.37;2.17;;;28.00;42.00;;;;;;5073539;28;20397;-56
2021/05/30 12:24:55;;;;;;;3.23;2.40;;;27.90;42.80;;;;;;5073256;28;20196;-57
2021/05/30 12:27:22;;;;;;;2.60;2.40;;;27.40;43.50;;;;;;5073203;28;20486;-57
2021/05/30 12:29:50;;;;;;;2.33;2.13;;;27.20;44.10;;;;;;5073362;28;20420;-57
2021/05/30 12:32:17;;;;;;;2.60;2.10;;;27.00;44.60;;;;;;5073368;28;20490;-56
2021/05/30 12:34:43;;;;;;;2.90;2.70;;;26.00;45.30;;;;;;5073319;28;20524;-54
2021/05/30 12:37:09;;;;;;;3.20;2.27;;;24.80;46.70;;;;;;5072920;28;20408;-54
2021/05/30 12:39:35;;;;;;;2.60;2.40;;;24.20;47.00;;;;;;5073156;28;20511;-56
2021/05/30 12:42:05;;;;;;;2.13;2.00;;;25.50;47.20;;;;;;5073535;28;20505;-54
2021/05/30 12:44:40;;;;;;;2.90;2.30;;;26.10;45.00;;;;;;5073363;28;20158;-53
2021/05/30 12:47:20;;;;;;;2.60;2.40;;;26.70;43.90;;;;;;5073050;28;20474;-55
2021/05/30 12:50:06;;;;;;;2.53;2.20;;;27.90;42.60;;;;;;5073108;28;20848;-57
2021/05/30 12:52:53;;;;;;;2.40;2.20;;;26.70;42.90;;;;;;5073664;28;20400;-57
2021/05/30 12:55:34;;;;;;;2.53;2.33;;;27.10;42.00;;;;;;5073466;28;20437;-57
2021/05/30 12:58:00;;;;;;;2.87;2.10;;;28.10;41.10;;;;;;5073750;28;20752;-57
2021/05/30 13:00:32;;;;;;;2.40;2.20;;;28.30;41.10;;;;;;5073559;28;20467;-56